createdAt,value
2018-11-23T00:00:31.504Z,97266.95
2018-11-23T00:03:01.168Z,97264.92
2018-11-23T00:05:30.367Z,97269.94
2018-11-23T00:08:00.183Z,97268.68
2018-11-23T00:10:32.216Z,97271.19
2018-11-23T00:13:01.317Z,97274.27
2018-11-23T00:15:30.506Z,97267.23
2018-11-23T00:17:59.711Z,97267.35
2018-11-23T00:20:29.795Z,97276.60
2018-11-23T00:22:59.001Z,97266.58
2018-11-23T00:25:28.425Z,97264.13
2018-11-23T00:27:58.475Z,97262.34
2018-11-23T00:30:29.208Z,97257.98
2018-11-23T00:32:59.034Z,97269.73
2018-11-23T00:35:29.555Z,97273.94
2018-11-23T00:37:58.877Z,97267.35
2018-11-23T00:40:29.211Z,97260.77
2018-11-23T00:42:59.326Z,97259.63
2018-11-23T00:45:28.601Z,97255.09
2018-11-23T00:47:58.673Z,97258.31
2018-11-23T00:50:28.217Z,97265.51
2018-11-23T00:52:58.491Z,97267.63
2018-11-23T00:55:28.931Z,97269.66
2018-11-23T00:57:58.148Z,97275.59
2018-11-23T01:00:29.359Z,97282.79
2018-11-23T01:02:59.380Z,97287.03
2018-11-23T01:05:28.563Z,97293.74
2018-11-23T01:07:58.685Z,97295.44
2018-11-23T01:10:28.723Z,97282.91
2018-11-23T01:12:58.439Z,97277.00
2018-11-23T01:15:27.574Z,97281.21
2018-11-23T01:17:56.673Z,97279.16
2018-11-23T01:20:26.806Z,97279.25
2018-11-23T01:22:56.723Z,97280.41
2018-11-23T01:25:26.599Z,97279.63
2018-11-23T01:27:56.193Z,97280.56
2018-11-23T01:30:26.697Z,97279.76
2018-11-23T01:32:55.866Z,97273.55
2018-11-23T01:35:25.000Z,97274.03
2018-11-23T01:37:54.163Z,97277.41
2018-11-23T01:40:24.563Z,97282.42
2018-11-23T01:43:24.550Z,97280.69
2018-11-23T01:45:53.683Z,97284.92
2018-11-23T01:48:23.015Z,97290.38
2018-11-23T01:50:52.169Z,97279.43
2018-11-23T01:53:21.292Z,97275.34
2018-11-23T01:55:50.464Z,97273.70
2018-11-23T01:58:19.620Z,97273.28
2018-11-23T02:00:49.346Z,97273.28
2018-11-23T02:03:19.364Z,97269.08
2018-11-23T02:05:49.372Z,97263.25
2018-11-23T02:08:19.418Z,97262.48
2018-11-23T02:10:49.412Z,97258.24
2018-11-23T02:13:19.445Z,97253.70
2018-11-23T02:15:49.551Z,97242.42
2018-11-23T02:18:20.054Z,97245.00
2018-11-23T02:20:49.480Z,97242.55
2018-11-23T02:23:19.476Z,97247.56
2018-11-23T02:25:49.483Z,97245.38
2018-11-23T02:28:19.491Z,97250.39
2018-11-23T02:30:51.119Z,97253.38
2018-11-23T02:33:20.313Z,97260.91
2018-11-23T02:35:49.700Z,97265.91
2018-11-23T02:38:19.599Z,97267.94
2018-11-23T02:40:50.446Z,97272.63
2018-11-23T02:43:19.711Z,97266.84
2018-11-23T02:45:49.634Z,97272.63
2018-11-23T02:48:19.798Z,97278.90
2018-11-23T02:50:49.704Z,97273.88
2018-11-23T02:53:19.904Z,97268.09
2018-11-23T02:55:49.852Z,97276.99
2018-11-23T02:58:19.819Z,97275.41
2018-11-23T03:00:49.806Z,97279.68
2018-11-23T03:03:19.832Z,97274.66
2018-11-23T03:05:49.864Z,97283.86
2018-11-23T03:08:20.649Z,97283.05
2018-11-23T03:10:50.556Z,97290.58
2018-11-23T03:13:19.870Z,97287.14
2018-11-23T03:15:49.983Z,97293.02
2018-11-23T03:18:20.622Z,97297.17
2018-11-23T03:20:49.999Z,97292.48
2018-11-23T03:23:19.976Z,97286.54
2018-11-23T03:25:50.071Z,97287.47
2018-11-23T03:28:20.005Z,97282.45
2018-11-23T03:30:49.909Z,97281.20
2018-11-23T03:33:20.023Z,97283.65
2018-11-23T03:35:50.205Z,97282.33
2018-11-23T03:38:20.983Z,97283.59
2018-11-23T03:40:50.884Z,97285.97
2018-11-23T03:43:20.328Z,97281.73
2018-11-23T03:45:49.451Z,97279.37
2018-11-23T03:48:18.551Z,97279.83
2018-11-23T03:50:47.695Z,97281.88
2018-11-23T03:53:16.843Z,97281.73
2018-11-23T03:55:45.957Z,97280.95
2018-11-23T03:58:15.115Z,97287.55
2018-11-23T04:00:44.213Z,97289.19
2018-11-23T04:03:13.337Z,97298.51
2018-11-23T04:05:42.478Z,97296.92
2018-11-23T04:08:11.636Z,97296.56
2018-11-23T04:10:40.729Z,97297.82
2018-11-23T04:13:09.889Z,97302.06
2018-11-23T04:15:39.001Z,97296.72
2018-11-23T04:18:08.093Z,97294.98
2018-11-23T04:23:20.737Z,97295.31
2018-11-23T04:25:50.545Z,97296.98
2018-11-23T04:28:20.305Z,97294.06
2018-11-23T04:30:50.311Z,97290.30
2018-11-23T04:33:20.213Z,97296.13
2018-11-23T04:35:50.349Z,97293.61
2018-11-23T04:38:20.339Z,97293.61
2018-11-23T04:40:50.379Z,97290.18
2018-11-23T04:43:20.325Z,97284.72
2018-11-23T04:45:50.412Z,97283.31
2018-11-23T04:48:20.405Z,97282.86
2018-11-23T04:50:50.334Z,97284.92
2018-11-23T04:53:20.339Z,97292.89
2018-11-23T04:55:50.499Z,97291.64
2018-11-23T04:58:20.427Z,97295.07
2018-11-23T05:00:50.473Z,97290.06
2018-11-23T05:03:20.504Z,97284.12
2018-11-23T05:05:50.489Z,97294.14
2018-11-23T05:08:20.541Z,97292.34
2018-11-23T05:10:50.522Z,97291.84
2018-11-23T05:13:20.541Z,97302.19
2018-11-23T05:15:50.667Z,97306.40
2018-11-23T05:18:20.535Z,97310.64
2018-11-23T05:20:50.571Z,97309.38
2018-11-23T05:23:20.497Z,97314.91
2018-11-23T05:25:50.717Z,97311.50
2018-11-23T05:28:20.686Z,97307.33
2018-11-23T05:30:50.743Z,97317.03
2018-11-23T05:33:20.671Z,97328.31
2018-11-23T05:35:50.679Z,97328.38
2018-11-23T05:38:20.748Z,97331.74
2018-11-23T05:40:50.932Z,97328.31
2018-11-23T05:43:20.771Z,97318.28
2018-11-23T05:45:50.791Z,97317.52
2018-11-23T05:48:26.780Z,97310.77
2018-11-23T05:50:51.521Z,97308.38
2018-11-23T05:53:21.090Z,97310.88
2018-11-23T05:55:51.103Z,97316.83
2018-11-23T05:58:20.896Z,97317.25
2018-11-23T06:00:50.929Z,97320.85
2018-11-23T06:03:21.754Z,97316.58
2018-11-23T06:05:51.705Z,97316.58
2018-11-23T06:08:20.987Z,97319.09
2018-11-23T06:10:50.967Z,97311.41
2018-11-23T06:13:21.756Z,97319.86
2018-11-23T06:15:51.043Z,97323.17
2018-11-23T06:18:21.196Z,97320.19
2018-11-23T06:20:51.108Z,97324.75
2018-11-23T06:23:21.102Z,97327.26
2018-11-23T06:26:09.648Z,97327.58
2018-11-23T06:28:39.407Z,97322.12
2018-11-23T06:31:08.612Z,97317.11
2018-11-23T06:33:41.055Z,97315.50
2018-11-23T06:36:10.223Z,97309.71
2018-11-23T06:38:39.441Z,97312.22
2018-11-23T06:41:10.464Z,97312.66
2018-11-23T06:43:39.001Z,97312.16
2018-11-23T06:46:09.578Z,97304.58
2018-11-23T06:48:38.764Z,97302.84
2018-11-23T06:51:08.232Z,97303.70
2018-11-23T06:53:37.386Z,97308.33
2018-11-23T06:56:06.883Z,97312.09
2018-11-23T06:58:36.099Z,97307.98
2018-11-23T07:01:06.159Z,97304.42
2018-11-23T07:03:35.339Z,97314.44
2018-11-23T07:06:04.508Z,97304.42
2018-11-23T07:08:33.689Z,97302.84
2018-11-23T07:11:03.856Z,97291.64
2018-11-23T07:13:34.200Z,97313.67
2018-11-23T07:16:03.367Z,97311.94
2018-11-23T07:18:32.593Z,97315.25
2018-11-23T07:21:01.734Z,97314.31
2018-11-23T07:23:31.315Z,97318.40
2018-11-23T07:26:00.465Z,97330.93
2018-11-23T07:28:29.658Z,97328.09
2018-11-23T07:31:02.516Z,97334.43
2018-11-23T07:33:28.124Z,97338.73
2018-11-23T07:35:57.276Z,97337.61
2018-11-23T07:38:28.397Z,97340.56
2018-11-23T07:41:09.231Z,97338.98
2018-11-23T07:43:40.788Z,97333.97
2018-11-23T07:46:09.942Z,97327.91
2018-11-23T07:48:39.117Z,97330.73
2018-11-23T07:51:08.289Z,97325.15
2018-11-23T07:53:37.431Z,97328.42
2018-11-23T07:56:06.652Z,97330.93
2018-11-23T07:58:35.867Z,97330.16
2018-11-23T08:01:05.311Z,97328.97
2018-11-23T08:03:35.186Z,97321.03
2018-11-23T08:06:05.055Z,97328.70
2018-11-23T08:08:34.977Z,97332.92
2018-11-23T08:11:07.959Z,97327.91
2018-11-23T08:13:37.877Z,97328.70
2018-11-23T08:16:07.121Z,97328.03
2018-11-23T08:18:36.333Z,97332.27
2018-11-23T08:21:06.209Z,97331.47
2018-11-23T08:23:35.385Z,97322.30
2018-11-23T08:26:05.272Z,97326.00
2018-11-23T08:28:34.507Z,97328.52
2018-11-23T08:31:03.692Z,97323.17
2018-11-23T08:33:32.849Z,97323.17
2018-11-23T08:36:02.023Z,97327.38
2018-11-23T08:38:33.499Z,97327.38
2018-11-23T08:41:03.232Z,97328.95
2018-11-23T08:43:32.423Z,97324.42
2018-11-23T08:46:01.568Z,97327.05
2018-11-23T08:48:30.753Z,97326.73
2018-11-23T08:50:59.927Z,97322.65
2018-11-23T08:53:33.681Z,97326.73
2018-11-23T08:56:03.068Z,97320.91
2018-11-23T08:58:32.194Z,97315.12
2018-11-23T09:01:01.375Z,97304.11
2018-11-23T09:03:30.559Z,97303.24
2018-11-23T09:06:00.299Z,97305.42
2018-11-23T09:08:29.471Z,97303.04
2018-11-23T09:10:58.675Z,97303.77
2018-11-23T09:13:28.613Z,97304.69
2018-11-23T09:15:57.875Z,97308.99
2018-11-23T09:18:27.049Z,97314.72
2018-11-23T09:20:56.245Z,97312.86
2018-11-23T09:23:25.511Z,97312.86
2018-11-23T09:25:54.691Z,97311.88
2018-11-23T09:28:23.862Z,97315.85
2018-11-23T09:30:53.036Z,97315.52
2018-11-23T09:33:22.859Z,97307.68
2018-11-23T09:35:52.793Z,97290.58
2018-11-23T09:38:22.736Z,97291.38
2018-11-23T09:40:52.883Z,97293.95
2018-11-23T09:43:22.946Z,97285.68
2018-11-23T09:45:52.816Z,97273.50
2018-11-23T09:48:22.850Z,97279.41
2018-11-23T09:50:53.045Z,97283.05
2018-11-23T09:53:22.984Z,97290.90
2018-11-23T09:55:52.964Z,97294.66
2018-11-23T09:58:23.593Z,97289.70
2018-11-23T10:00:53.099Z,97301.53
2018-11-23T10:03:23.029Z,97307.80
2018-11-23T10:10:51.545Z,97306.42
2018-11-23T10:13:20.933Z,97292.16
2018-11-23T10:15:50.242Z,97291.38
2018-11-23T10:21:19.391Z,97291.38
2018-11-23T10:23:48.668Z,97288.88
2018-11-23T10:26:17.996Z,97289.80
2018-11-23T10:28:47.264Z,97275.65
2018-11-23T10:31:16.591Z,97276.73
2018-11-23T10:33:45.825Z,97272.76
2018-11-23T10:36:15.100Z,97277.77
2018-11-23T10:38:44.402Z,97269.20
2018-11-23T10:41:13.640Z,97261.53
2018-11-23T10:43:42.938Z,97264.04
2018-11-23T10:46:12.124Z,97257.20
2018-11-23T10:48:41.391Z,97256.40
2018-11-23T10:51:11.336Z,97255.47
2018-11-23T10:53:40.609Z,97242.02
2018-11-23T10:56:09.936Z,97233.17
2018-11-23T10:58:39.194Z,97227.30
2018-11-23T11:01:13.558Z,97215.69
2018-11-23T11:03:47.953Z,97210.45
2018-11-23T11:06:23.199Z,97208.76
2018-11-23T11:08:52.455Z,97203.92
2018-11-23T11:11:21.803Z,97205.70
2018-11-23T11:13:51.092Z,97199.88
2018-11-23T11:16:20.334Z,97197.52
2018-11-23T11:18:49.979Z,97194.09
2018-11-23T11:21:19.236Z,97193.98
2018-11-23T11:23:49.422Z,97181.18
2018-11-23T11:26:18.673Z,97175.72
2018-11-23T11:28:48.157Z,97172.41
2018-11-23T11:31:17.420Z,97181.06
2018-11-23T11:33:46.698Z,97175.91
2018-11-23T11:36:15.978Z,97174.20
2018-11-23T11:38:46.267Z,97171.03
2018-11-23T11:41:14.728Z,97177.75
2018-11-23T11:43:43.999Z,97170.11
2018-11-23T11:46:13.290Z,97168.38
2018-11-23T11:48:42.516Z,97173.72
2018-11-23T11:51:11.809Z,97163.97
2018-11-23T11:53:41.051Z,97158.89
2018-11-23T11:56:10.290Z,97154.69
2018-11-23T11:58:40.026Z,97154.36
2018-11-23T12:01:09.390Z,97152.96
2018-11-23T12:03:38.629Z,97155.35
2018-11-23T12:06:07.940Z,97150.45
2018-11-23T12:08:37.292Z,97150.93
2018-11-23T12:11:07.064Z,97133.38
2018-11-23T12:13:36.379Z,97134.30
2018-11-23T12:16:05.696Z,97133.83
2018-11-23T12:18:34.993Z,97133.05
2018-11-23T12:21:04.652Z,97137.20
2018-11-23T12:23:33.878Z,97134.64
2018-11-23T12:26:03.238Z,97129.63
2018-11-23T12:28:32.493Z,97125.38
2018-11-23T12:31:01.764Z,97124.02
2018-11-23T12:33:31.072Z,97119.34
2018-11-23T12:36:00.388Z,97113.41
2018-11-23T12:38:29.806Z,97112.48
2018-11-23T12:40:59.216Z,97109.97
2018-11-23T12:43:28.513Z,97114.27
2018-11-23T12:45:57.796Z,97111.81
2018-11-23T12:48:27.462Z,97105.88
2018-11-23T12:50:56.765Z,97101.34
2018-11-23T12:53:26.062Z,97087.67
2018-11-23T12:55:55.387Z,97094.05
2018-11-23T12:58:24.812Z,97082.77
2018-11-23T13:00:54.655Z,97080.74
2018-11-23T13:03:24.863Z,97073.17
2018-11-23T13:05:54.853Z,97070.02
2018-11-23T13:08:24.766Z,97069.43
2018-11-23T13:10:54.838Z,97060.66
2018-11-23T13:13:24.779Z,97055.53
2018-11-23T13:15:54.768Z,97051.44
2018-11-23T13:18:24.836Z,97052.22
2018-11-23T13:20:55.082Z,97053.14
2018-11-23T13:23:24.863Z,97050.83
2018-11-23T13:25:54.959Z,97047.31
2018-11-23T13:28:24.957Z,97052.22
2018-11-23T13:30:55.016Z,97049.82
2018-11-23T13:33:24.913Z,97052.33
2018-11-23T13:35:54.948Z,97046.43
2018-11-23T13:38:24.986Z,97045.62
2018-11-23T13:40:55.264Z,97041.19
2018-11-23T13:43:25.123Z,97031.94
2018-11-23T13:45:55.219Z,97033.67
2018-11-23T13:48:25.243Z,97027.27
2018-11-23T13:50:55.184Z,97024.76
2018-11-23T13:53:25.089Z,97028.88
2018-11-23T13:55:55.211Z,97031.39
2018-11-23T13:58:25.257Z,97030.58
2018-11-23T14:00:55.354Z,97022.95
2018-11-23T14:03:25.449Z,97017.80
2018-11-23T14:05:55.344Z,97022.62
2018-11-23T14:08:25.323Z,97021.81
2018-11-23T14:10:55.334Z,97020.45
2018-11-23T14:13:25.480Z,97017.61
2018-11-23T14:15:55.559Z,97019.75
2018-11-23T14:18:25.627Z,97014.63
2018-11-23T14:20:55.633Z,97013.37
2018-11-23T14:23:25.983Z,97009.95
2018-11-23T14:25:56.301Z,97012.78
2018-11-23T14:28:25.744Z,97011.03
2018-11-23T14:30:55.528Z,97006.74
2018-11-23T14:33:25.722Z,97005.63
2018-11-23T14:35:55.432Z,97003.91
2018-11-23T14:38:25.656Z,97003.91
2018-11-23T14:40:55.738Z,97008.58
2018-11-23T14:43:25.583Z,96999.56
2018-11-23T14:45:55.637Z,97003.13
2018-11-23T14:48:25.673Z,97003.13
2018-11-23T14:50:55.765Z,97001.06
2018-11-23T14:53:25.694Z,96993.11
2018-11-23T14:55:55.673Z,96990.94
2018-11-23T14:58:25.766Z,96986.48
2018-11-23T15:00:55.712Z,96974.62
2018-11-23T15:03:27.063Z,96975.39
2018-11-23T15:05:56.411Z,96973.70
2018-11-23T15:08:25.774Z,96974.51
2018-11-23T15:10:55.797Z,96977.79
2018-11-23T15:13:26.014Z,96980.19
2018-11-23T15:15:55.917Z,96980.91
2018-11-23T15:18:26.748Z,96984.02
2018-11-23T15:20:55.963Z,96987.77
2018-11-23T15:23:25.944Z,96987.33
2018-11-23T15:25:56.330Z,96984.71
2018-11-23T15:28:26.011Z,96986.41
2018-11-23T15:30:55.983Z,96983.84
2018-11-23T15:33:26.139Z,96983.91
2018-11-23T15:35:55.936Z,96978.03
2018-11-23T15:38:26.567Z,96980.53
2018-11-23T15:40:56.173Z,96983.91
2018-11-23T15:43:26.092Z,96976.45
2018-11-23T15:45:56.232Z,96972.63
2018-11-23T15:48:26.124Z,96970.24
2018-11-23T15:50:56.165Z,96977.42
2018-11-23T15:53:26.247Z,96968.60
2018-11-23T15:55:56.361Z,96969.80
2018-11-23T15:58:26.241Z,96965.13
2018-11-23T16:00:56.286Z,96966.38
2018-11-23T16:03:26.322Z,96958.20
2018-11-23T16:05:56.379Z,96948.95
2018-11-23T16:08:26.361Z,96945.53
2018-11-23T16:10:57.307Z,96942.58
2018-11-23T16:13:27.447Z,96942.97
2018-11-23T16:15:57.564Z,96947.14
2018-11-23T16:18:28.504Z,96948.89
2018-11-23T16:20:58.849Z,96945.20
2018-11-23T16:23:29.087Z,96948.17
2018-11-23T16:25:59.107Z,96939.74
2018-11-23T16:28:29.246Z,96935.52
2018-11-23T16:44:48.281Z,96932.23
2018-11-23T16:47:17.521Z,96920.63
2018-11-23T16:49:46.777Z,96914.86
2018-11-23T16:52:15.983Z,96910.71
2018-11-23T16:54:45.333Z,96906.56
2018-11-23T16:57:14.729Z,96913.33
2018-11-23T16:59:44.000Z,96905.90
2018-11-23T17:02:13.323Z,96909.56
2018-11-23T17:04:42.570Z,96906.73
2018-11-23T17:07:12.963Z,96912.66
2018-11-23T17:09:41.238Z,96909.70
2018-11-23T17:12:10.572Z,96909.70
2018-11-23T17:14:39.931Z,96910.96
2018-11-23T17:17:09.722Z,96909.38
2018-11-23T17:19:38.951Z,96910.54
2018-11-23T17:22:08.358Z,96907.64
2018-11-23T17:24:37.787Z,96905.14
2018-11-23T17:27:07.487Z,96905.09
2018-11-23T17:29:36.716Z,96895.93
2018-11-23T17:32:06.047Z,96901.72
2018-11-23T17:34:35.315Z,96891.70
2018-11-23T17:37:04.624Z,96890.78
2018-11-23T17:39:33.942Z,96885.77
2018-11-23T17:42:03.274Z,96890.00
2018-11-23T17:44:32.487Z,96877.81
2018-11-23T17:47:01.914Z,96883.69
2018-11-23T17:49:31.201Z,96879.93
2018-11-23T17:52:00.589Z,96872.47
2018-11-23T17:54:29.890Z,96862.45
2018-11-23T17:56:59.219Z,96862.11
2018-11-23T17:59:32.685Z,96854.27
2018-11-23T18:02:01.996Z,96856.30
2018-11-23T18:04:31.317Z,96855.04
2018-11-23T18:07:00.584Z,96854.27
2018-11-23T18:09:29.924Z,96848.33
2018-11-23T18:11:59.225Z,96854.07
2018-11-23T18:14:28.498Z,96858.22
2018-11-23T18:16:57.813Z,96855.66
2018-11-23T18:19:27.542Z,96850.70
2018-11-23T18:21:57.550Z,96842.41
2018-11-23T18:24:27.685Z,96843.52
2018-11-23T18:26:57.874Z,96840.68
2018-11-23T18:29:27.897Z,96835.67
2018-11-23T18:31:57.684Z,96833.17
2018-11-23T18:34:27.785Z,96830.66
2018-11-23T18:36:57.652Z,96822.37
2018-11-23T18:39:27.787Z,96814.05
2018-11-23T18:41:57.692Z,96808.25
2018-11-23T18:44:27.777Z,96801.52
2018-11-23T18:46:57.722Z,96808.12
2018-11-23T18:49:27.830Z,96800.60
2018-11-23T18:51:57.874Z,96785.58
2018-11-23T18:54:27.903Z,96778.01
2018-11-23T18:56:57.918Z,96766.78
2018-11-23T18:59:27.944Z,96767.70
2018-11-23T19:01:58.025Z,96760.66
2018-11-23T19:04:28.112Z,96750.64
2018-11-23T19:06:57.983Z,96735.61
2018-11-23T19:09:28.168Z,96730.59
2018-11-23T19:11:57.993Z,96731.51
2018-11-23T19:14:27.977Z,96721.54
2018-11-23T19:16:58.079Z,96722.37
2018-11-23T19:19:28.115Z,96719.08
2018-11-23T19:21:58.066Z,96723.28
2018-11-23T19:24:28.334Z,96719.99
2018-11-23T19:26:58.177Z,96721.69
2018-11-23T19:29:34.702Z,96709.16
2018-11-23T19:32:04.199Z,96693.78
2018-11-23T19:34:34.391Z,96692.53
2018-11-23T19:37:04.646Z,96686.27
2018-11-23T19:39:34.444Z,96680.91
2018-11-23T19:42:04.206Z,96679.31
2018-11-23T19:44:34.696Z,96678.97
2018-11-23T19:47:04.560Z,96680.23
2018-11-23T19:49:34.399Z,96683.64
2018-11-23T19:52:03.866Z,96665.28
2018-11-23T19:54:33.385Z,96667.88
2018-11-23T19:57:02.905Z,96663.34
2018-11-23T19:59:32.197Z,96651.25
2018-11-23T20:02:01.730Z,96658.81
2018-11-23T20:04:31.282Z,96666.45
2018-11-23T20:07:00.838Z,96669.41
2018-11-23T20:09:30.893Z,96680.73
2018-11-23T20:12:00.687Z,96669.92
2018-11-23T20:14:30.379Z,96652.03
2018-11-23T20:16:59.771Z,96643.34
2018-11-23T20:19:29.177Z,96642.53
2018-11-23T20:21:58.666Z,96642.48
2018-11-23T20:24:28.803Z,96645.59
2018-11-23T20:26:58.750Z,96639.77
2018-11-23T20:29:28.914Z,96644.43
2018-11-23T20:31:58.835Z,96633.15
2018-11-23T20:34:28.826Z,96629.09
2018-11-23T20:36:58.900Z,96633.70
2018-11-23T20:39:29.273Z,96642.13
2018-11-23T20:41:59.044Z,96631.25
2018-11-23T20:44:29.072Z,96623.42
2018-11-23T20:46:59.016Z,96612.14
2018-11-23T20:49:28.948Z,96619.31
2018-11-23T20:51:58.857Z,96614.77
2018-11-23T20:54:28.898Z,96615.63
2018-11-23T20:56:59.079Z,96619.86
2018-11-23T20:59:28.969Z,96609.92
2018-11-23T21:01:59.124Z,96604.12
2018-11-23T21:04:29.021Z,96598.28
2018-11-23T21:06:59.194Z,96592.48
2018-11-23T21:09:31.180Z,96591.66
2018-11-23T21:11:59.137Z,96583.32
2018-11-23T21:14:29.146Z,96581.28
2018-11-23T21:16:59.129Z,96572.94
2018-11-23T21:19:29.290Z,96571.69
2018-11-23T21:21:59.237Z,96572.59
2018-11-23T21:24:29.326Z,96570.13
2018-11-23T21:26:59.266Z,96564.36
2018-11-23T21:29:29.344Z,96564.44
2018-11-23T21:31:59.518Z,96559.42
2018-11-23T21:34:29.735Z,96562.40
2018-11-23T21:36:59.243Z,96554.95
2018-11-23T21:39:29.270Z,96551.62
2018-11-23T21:41:59.626Z,96545.82
2018-11-23T21:44:29.560Z,96546.26
2018-11-23T21:46:59.540Z,96536.27
2018-11-23T21:49:29.618Z,96532.97
2018-11-23T21:51:59.527Z,96524.58
2018-11-23T21:54:29.413Z,96533.86
2018-11-23T21:56:59.914Z,96522.15
2018-11-23T21:59:29.998Z,96535.59
2018-11-23T22:02:00.370Z,96519.75
2018-11-23T22:04:29.638Z,96510.86
2018-11-23T22:06:59.556Z,96521.44
2018-11-23T22:09:29.696Z,96519.83
2018-11-23T22:11:59.643Z,96524.84
2018-11-23T22:14:29.786Z,96524.49
2018-11-23T22:16:59.749Z,96520.38
2018-11-23T22:19:29.697Z,96530.02
2018-11-23T22:22:00.383Z,96526.64
2018-11-23T22:24:29.765Z,96520.02
2018-11-23T22:26:59.760Z,96509.98
2018-11-23T22:29:29.848Z,96512.13
2018-11-23T22:31:59.702Z,96496.53
2018-11-23T22:34:29.783Z,96504.21
2018-11-23T22:36:59.835Z,96500.09
2018-11-23T22:39:29.869Z,96500.09
2018-11-23T22:41:59.860Z,96499.30
2018-11-23T22:44:29.911Z,96503.50
2018-11-23T22:46:59.963Z,96503.14
2018-11-23T22:49:30.035Z,96501.89
2018-11-23T22:52:00.228Z,96496.08
2018-11-23T22:54:30.069Z,96491.09
2018-11-23T22:57:00.026Z,96493.61
2018-11-23T22:59:30.118Z,96489.41
2018-11-23T23:02:00.139Z,96478.58
2018-11-23T23:04:30.153Z,96469.44
2018-11-23T23:07:00.105Z,96460.69
2018-11-23T23:09:30.458Z,96463.23
2018-11-23T23:12:01.081Z,96457.78
2018-11-23T23:14:30.452Z,96447.78
2018-11-23T23:17:00.217Z,96482.09
2018-11-23T23:19:30.273Z,96482.95
2018-11-23T23:22:00.356Z,96470.41
2018-11-23T23:24:30.312Z,96454.52
2018-11-23T23:27:00.423Z,96462.13
2018-11-23T23:29:30.391Z,96470.48
2018-11-23T23:32:00.409Z,96447.09
2018-11-23T23:34:30.347Z,96429.52
2018-11-23T23:40:00.881Z,96445.02
2018-11-23T23:42:30.871Z,96436.16
2018-11-23T23:45:00.808Z,96437.05
2018-11-23T23:47:31.007Z,96436.23
2018-11-23T23:50:00.507Z,96432.03
2018-11-23T23:52:30.619Z,96422.00
2018-11-23T23:55:00.800Z,96422.00
2018-11-23T23:57:30.623Z,96420.28
